sensor_id;sensor_type;location;lat;lon;timestamp;P1;durP1;ratioP1;P2;durP2;ratioP2
56319;SDS011;42226;42.382;23.748;2022-07-06T00:00:17;9.80;;;8.90;;
56319;SDS011;42226;42.382;23.748;2022-07-06T00:02:44;13.35;;;12.05;;
56319;SDS011;42226;42.382;23.748;2022-07-06T00:05:11;11.50;;;10.40;;
56319;SDS011;42226;42.382;23.748;2022-07-06T00:07:37;12.10;;;10.95;;
56319;SDS011;42226;42.382;23.748;2022-07-06T00:10:04;11.05;;;10.05;;
56319;SDS011;42226;42.382;23.748;2022-07-06T00:12:31;12.15;;;10.95;;
56319;SDS011;42226;42.382;23.748;2022-07-06T00:14:58;10.70;;;9.63;;
56319;SDS011;42226;42.382;23.748;2022-07-06T00:17:25;11.07;;;10.00;;
56319;SDS011;42226;42.382;23.748;2022-07-06T00:19:52;12.23;;;11.02;;
56319;SDS011;42226;42.382;23.748;2022-07-06T00:22:19;11.80;;;10.70;;
56319;SDS011;42226;42.382;23.748;2022-07-06T00:24:45;12.45;;;11.32;;
56319;SDS011;42226;42.382;23.748;2022-07-06T00:27:12;11.75;;;10.85;;
56319;SDS011;42226;42.382;23.748;2022-07-06T00:29:39;12.15;;;11.05;;
56319;SDS011;42226;42.382;23.748;2022-07-06T00:32:09;10.50;;;9.60;;
56319;SDS011;42226;42.382;23.748;2022-07-06T00:34:37;11.50;;;10.38;;
56319;SDS011;42226;42.382;23.748;2022-07-06T00:37:07;10.23;;;9.27;;
56319;SDS011;42226;42.382;23.748;2022-07-06T00:39:33;10.63;;;9.82;;
56319;SDS011;42226;42.382;23.748;2022-07-06T00:42:00;10.70;;;9.70;;
56319;SDS011;42226;42.382;23.748;2022-07-06T00:44:27;11.38;;;10.25;;
56319;SDS011;42226;42.382;23.748;2022-07-06T00:46:54;9.80;;;9.00;;
56319;SDS011;42226;42.382;23.748;2022-07-06T00:49:21;9.93;;;9.10;;
56319;SDS011;42226;42.382;23.748;2022-07-06T00:52:06;11.73;;;10.02;;
56319;SDS011;42226;42.382;23.748;2022-07-06T00:54:33;9.85;;;8.95;;
56319;SDS011;42226;42.382;23.748;2022-07-06T00:57:01;9.50;;;8.60;;
56319;SDS011;42226;42.382;23.748;2022-07-06T00:59:28;12.07;;;10.82;;
56319;SDS011;42226;42.382;23.748;2022-07-06T01:01:55;15.68;;;10.10;;
56319;SDS011;42226;42.382;23.748;2022-07-06T01:04:23;11.27;;;10.27;;
56319;SDS011;42226;42.382;23.748;2022-07-06T01:06:50;8.93;;;8.23;;
56319;SDS011;42226;42.382;23.748;2022-07-06T01:09:18;10.38;;;9.48;;
56319;SDS011;42226;42.382;23.748;2022-07-06T01:11:44;9.40;;;8.55;;
56319;SDS011;42226;42.382;23.748;2022-07-06T01:14:12;8.23;;;7.35;;
56319;SDS011;42226;42.382;23.748;2022-07-06T01:16:39;8.90;;;8.20;;
56319;SDS011;42226;42.382;23.748;2022-07-06T01:19:06;8.18;;;7.28;;
56319;SDS011;42226;42.382;23.748;2022-07-06T01:21:33;10.07;;;7.90;;
56319;SDS011;42226;42.382;23.748;2022-07-06T01:24:02;8.27;;;7.20;;
56319;SDS011;42226;42.382;23.748;2022-07-06T01:26:29;10.13;;;9.23;;
56319;SDS011;42226;42.382;23.748;2022-07-06T01:28:56;9.50;;;8.60;;
56319;SDS011;42226;42.382;23.748;2022-07-06T01:31:24;9.77;;;8.93;;
56319;SDS011;42226;42.382;23.748;2022-07-06T01:33:53;9.15;;;8.43;;
56319;SDS011;42226;42.382;23.748;2022-07-06T01:36:22;9.32;;;8.50;;
56319;SDS011;42226;42.382;23.748;2022-07-06T01:38:50;9.55;;;8.55;;
56319;SDS011;42226;42.382;23.748;2022-07-06T01:41:19;9.75;;;8.90;;
56319;SDS011;42226;42.382;23.748;2022-07-06T01:43:47;8.18;;;7.45;;
56319;SDS011;42226;42.382;23.748;2022-07-06T01:46:14;7.28;;;6.68;;
56319;SDS011;42226;42.382;23.748;2022-07-06T01:48:41;8.38;;;7.68;;
56319;SDS011;42226;42.382;23.748;2022-07-06T01:51:09;7.53;;;6.85;;
56319;SDS011;42226;42.382;23.748;2022-07-06T01:53:37;7.90;;;7.20;;
56319;SDS011;42226;42.382;23.748;2022-07-06T01:56:04;8.13;;;7.32;;
56319;SDS011;42226;42.382;23.748;2022-07-06T01:58:32;8.50;;;7.72;;
56319;SDS011;42226;42.382;23.748;2022-07-06T02:00:59;8.73;;;7.93;;
56319;SDS011;42226;42.382;23.748;2022-07-06T02:03:26;9.60;;;7.70;;
56319;SDS011;42226;42.382;23.748;2022-07-06T02:05:53;8.20;;;7.43;;
56319;SDS011;42226;42.382;23.748;2022-07-06T02:08:19;8.73;;;8.00;;
56319;SDS011;42226;42.382;23.748;2022-07-06T02:10:46;8.50;;;7.68;;
56319;SDS011;42226;42.382;23.748;2022-07-06T02:13:13;8.95;;;8.25;;
56319;SDS011;42226;42.382;23.748;2022-07-06T02:15:40;9.63;;;8.73;;
56319;SDS011;42226;42.382;23.748;2022-07-06T02:18:07;9.68;;;8.88;;
56319;SDS011;42226;42.382;23.748;2022-07-06T02:20:33;8.82;;;8.02;;
56319;SDS011;42226;42.382;23.748;2022-07-06T02:23:00;8.38;;;7.68;;
56319;SDS011;42226;42.382;23.748;2022-07-06T02:25:27;7.88;;;7.28;;
56319;SDS011;42226;42.382;23.748;2022-07-06T02:27:54;7.97;;;7.28;;
56319;SDS011;42226;42.382;23.748;2022-07-06T02:30:21;8.52;;;7.82;;
56319;SDS011;42226;42.382;23.748;2022-07-06T02:32:48;9.50;;;8.50;;
56319;SDS011;42226;42.382;23.748;2022-07-06T02:35:14;8.68;;;7.97;;
56319;SDS011;42226;42.382;23.748;2022-07-06T02:37:41;8.48;;;7.70;;
56319;SDS011;42226;42.382;23.748;2022-07-06T02:40:08;9.93;;;8.93;;
56319;SDS011;42226;42.382;23.748;2022-07-06T02:42:35;9.65;;;8.82;;
56319;SDS011;42226;42.382;23.748;2022-07-06T02:45:03;10.88;;;9.93;;
56319;SDS011;42226;42.382;23.748;2022-07-06T02:47:30;10.73;;;9.77;;
56319;SDS011;42226;42.382;23.748;2022-07-06T02:49:57;10.80;;;9.98;;
56319;SDS011;42226;42.382;23.748;2022-07-06T02:52:24;11.32;;;10.32;;
56319;SDS011;42226;42.382;23.748;2022-07-06T02:54:51;14.02;;;12.55;;
56319;SDS011;42226;42.382;23.748;2022-07-06T02:57:18;12.27;;;11.25;;
56319;SDS011;42226;42.382;23.748;2022-07-06T02:59:45;10.50;;;9.48;;
56319;SDS011;42226;42.382;23.748;2022-07-06T03:02:15;13.00;;;9.55;;
56319;SDS011;42226;42.382;23.748;2022-07-06T03:04:42;10.07;;;9.13;;
56319;SDS011;42226;42.382;23.748;2022-07-06T03:07:09;10.02;;;9.07;;
56319;SDS011;42226;42.382;23.748;2022-07-06T03:09:36;10.23;;;9.32;;
56319;SDS011;42226;42.382;23.748;2022-07-06T03:12:03;9.85;;;8.95;;
56319;SDS011;42226;42.382;23.748;2022-07-06T03:14:30;9.88;;;8.98;;
56319;SDS011;42226;42.382;23.748;2022-07-06T03:16:57;10.02;;;8.48;;
56319;SDS011;42226;42.382;23.748;2022-07-06T03:19:24;9.70;;;8.90;;
56319;SDS011;42226;42.382;23.748;2022-07-06T03:21:51;11.52;;;10.52;;
56319;SDS011;42226;42.382;23.748;2022-07-06T03:24:17;10.95;;;10.05;;
56319;SDS011;42226;42.382;23.748;2022-07-06T03:26:44;9.70;;;8.90;;
56319;SDS011;42226;42.382;23.748;2022-07-06T03:29:11;10.93;;;9.95;;
56319;SDS011;42226;42.382;23.748;2022-07-06T03:31:38;9.52;;;8.73;;
56319;SDS011;42226;42.382;23.748;2022-07-06T03:34:05;10.00;;;9.00;;
56319;SDS011;42226;42.382;23.748;2022-07-06T03:36:31;13.98;;;12.68;;
56319;SDS011;42226;42.382;23.748;2022-07-06T03:38:58;13.02;;;11.93;;
56319;SDS011;42226;42.382;23.748;2022-07-06T03:41:25;13.88;;;12.25;;
56319;SDS011;42226;42.382;23.748;2022-07-06T03:43:52;13.90;;;12.65;;
56319;SDS011;42226;42.382;23.748;2022-07-06T03:46:19;12.20;;;11.20;;
56319;SDS011;42226;42.382;23.748;2022-07-06T03:48:45;10.85;;;9.95;;
56319;SDS011;42226;42.382;23.748;2022-07-06T03:51:12;11.52;;;10.43;;
56319;SDS011;42226;42.382;23.748;2022-07-06T03:53:39;12.10;;;10.50;;
56319;SDS011;42226;42.382;23.748;2022-07-06T03:56:06;13.70;;;12.32;;
56319;SDS011;42226;42.382;23.748;2022-07-06T03:58:51;14.13;;;12.85;;
56319;SDS011;42226;42.382;23.748;2022-07-06T04:01:18;15.18;;;13.80;;
56319;SDS011;42226;42.382;23.748;2022-07-06T04:03:45;14.85;;;13.60;;
56319;SDS011;42226;42.382;23.748;2022-07-06T04:06:12;14.70;;;13.20;;
56319;SDS011;42226;42.382;23.748;2022-07-06T04:08:39;14.32;;;13.13;;
56319;SDS011;42226;42.382;23.748;2022-07-06T04:11:06;14.18;;;12.95;;
56319;SDS011;42226;42.382;23.748;2022-07-06T04:13:33;12.90;;;11.90;;
56319;SDS011;42226;42.382;23.748;2022-07-06T04:16:00;14.02;;;12.63;;
56319;SDS011;42226;42.382;23.748;2022-07-06T04:18:27;15.50;;;14.10;;
56319;SDS011;42226;42.382;23.748;2022-07-06T04:20:54;16.25;;;14.70;;
56319;SDS011;42226;42.382;23.748;2022-07-06T04:23:22;15.55;;;14.20;;
56319;SDS011;42226;42.382;23.748;2022-07-06T04:25:50;17.77;;;16.05;;
56319;SDS011;42226;42.382;23.748;2022-07-06T04:28:16;14.73;;;13.43;;
56319;SDS011;42226;42.382;23.748;2022-07-06T04:30:43;14.68;;;13.48;;
56319;SDS011;42226;42.382;23.748;2022-07-06T04:33:10;15.13;;;13.73;;
56319;SDS011;42226;42.382;23.748;2022-07-06T04:35:37;17.00;;;15.50;;
56319;SDS011;42226;42.382;23.748;2022-07-06T04:38:04;16.17;;;14.88;;
56319;SDS011;42226;42.382;23.748;2022-07-06T04:40:31;16.25;;;14.95;;
56319;SDS011;42226;42.382;23.748;2022-07-06T04:42:58;17.13;;;15.63;;
56319;SDS011;42226;42.382;23.748;2022-07-06T04:45:25;16.35;;;15.02;;
56319;SDS011;42226;42.382;23.748;2022-07-06T04:47:51;17.85;;;16.35;;
56319;SDS011;42226;42.382;23.748;2022-07-06T04:50:18;17.45;;;15.82;;
56319;SDS011;42226;42.382;23.748;2022-07-06T04:52:45;18.55;;;17.05;;
56319;SDS011;42226;42.382;23.748;2022-07-06T04:55:12;17.58;;;16.17;;
56319;SDS011;42226;42.382;23.748;2022-07-06T04:57:40;17.80;;;16.10;;
56319;SDS011;42226;42.382;23.748;2022-07-06T05:00:07;14.68;;;13.18;;
56319;SDS011;42226;42.382;23.748;2022-07-06T05:02:34;14.77;;;13.55;;
56319;SDS011;42226;42.382;23.748;2022-07-06T05:05:01;15.25;;;13.95;;
56319;SDS011;42226;42.382;23.748;2022-07-06T05:07:29;13.48;;;12.25;;
56319;SDS011;42226;42.382;23.748;2022-07-06T05:09:58;12.98;;;11.70;;
56319;SDS011;42226;42.382;23.748;2022-07-06T05:12:25;12.40;;;11.30;;
56319;SDS011;42226;42.382;23.748;2022-07-06T05:14:52;12.85;;;11.60;;
56319;SDS011;42226;42.382;23.748;2022-07-06T05:17:18;14.70;;;11.55;;
56319;SDS011;42226;42.382;23.748;2022-07-06T05:19:45;11.98;;;10.75;;
56319;SDS011;42226;42.382;23.748;2022-07-06T05:22:12;12.40;;;11.13;;
56319;SDS011;42226;42.382;23.748;2022-07-06T05:24:39;13.52;;;12.15;;
56319;SDS011;42226;42.382;23.748;2022-07-06T05:27:06;12.85;;;11.38;;
56319;SDS011;42226;42.382;23.748;2022-07-06T05:29:32;12.57;;;11.15;;
56319;SDS011;42226;42.382;23.748;2022-07-06T05:31:59;11.88;;;10.77;;
56319;SDS011;42226;42.382;23.748;2022-07-06T05:34:27;11.55;;;10.35;;
56319;SDS011;42226;42.382;23.748;2022-07-06T05:36:54;10.07;;;9.18;;
56319;SDS011;42226;42.382;23.748;2022-07-06T05:39:21;10.07;;;9.18;;
56319;SDS011;42226;42.382;23.748;2022-07-06T05:41:48;10.15;;;9.20;;
56319;SDS011;42226;42.382;23.748;2022-07-06T05:44:15;10.70;;;9.60;;
56319;SDS011;42226;42.382;23.748;2022-07-06T05:46:42;10.70;;;9.70;;
56319;SDS011;42226;42.382;23.748;2022-07-06T05:49:09;9.57;;;8.55;;
56319;SDS011;42226;42.382;23.748;2022-07-06T05:51:53;10.23;;;9.23;;
56319;SDS011;42226;42.382;23.748;2022-07-06T05:54:20;10.27;;;8.57;;
56319;SDS011;42226;42.382;23.748;2022-07-06T05:56:47;9.70;;;8.65;;
56319;SDS011;42226;42.382;23.748;2022-07-06T05:59:14;7.55;;;6.80;;
56319;SDS011;42226;42.382;23.748;2022-07-06T06:01:41;7.65;;;6.70;;
56319;SDS011;42226;42.382;23.748;2022-07-06T06:04:07;7.93;;;5.90;;
56319;SDS011;42226;42.382;23.748;2022-07-06T06:06:34;9.10;;;5.93;;
56319;SDS011;42226;42.382;23.748;2022-07-06T06:09:01;7.43;;;6.25;;
56319;SDS011;42226;42.382;23.748;2022-07-06T06:11:27;7.10;;;6.40;;
56319;SDS011;42226;42.382;23.748;2022-07-06T06:13:54;8.15;;;6.43;;
56319;SDS011;42226;42.382;23.748;2022-07-06T06:16:21;6.90;;;6.00;;
56319;SDS011;42226;42.382;23.748;2022-07-06T06:18:48;14.57;;;6.50;;
56319;SDS011;42226;42.382;23.748;2022-07-06T06:21:14;7.32;;;6.53;;
56319;SDS011;42226;42.382;23.748;2022-07-06T06:23:41;10.75;;;6.53;;
56319;SDS011;42226;42.382;23.748;2022-07-06T06:26:08;8.55;;;7.03;;
56319;SDS011;42226;42.382;23.748;2022-07-06T06:28:35;9.02;;;6.95;;
56319;SDS011;42226;42.382;23.748;2022-07-06T06:31:01;8.73;;;6.18;;
56319;SDS011;42226;42.382;23.748;2022-07-06T06:33:28;8.52;;;7.60;;
56319;SDS011;42226;42.382;23.748;2022-07-06T06:35:54;8.13;;;7.32;;
56319;SDS011;42226;42.382;23.748;2022-07-06T06:38:21;7.20;;;6.47;;
56319;SDS011;42226;42.382;23.748;2022-07-06T06:40:51;8.38;;;6.68;;
56319;SDS011;42226;42.382;23.748;2022-07-06T06:43:18;9.35;;;7.82;;
56319;SDS011;42226;42.382;23.748;2022-07-06T06:45:45;8.93;;;7.70;;
56319;SDS011;42226;42.382;23.748;2022-07-06T06:48:11;8.60;;;7.05;;
56319;SDS011;42226;42.382;23.748;2022-07-06T06:50:38;8.15;;;7.35;;
56319;SDS011;42226;42.382;23.748;2022-07-06T06:53:04;10.32;;;7.50;;
56319;SDS011;42226;42.382;23.748;2022-07-06T06:55:31;8.23;;;7.38;;
56319;SDS011;42226;42.382;23.748;2022-07-06T06:57:57;9.90;;;7.35;;
56319;SDS011;42226;42.382;23.748;2022-07-06T07:00:24;11.05;;;7.65;;
56319;SDS011;42226;42.382;23.748;2022-07-06T07:02:50;8.38;;;7.57;;
56319;SDS011;42226;42.382;23.748;2022-07-06T07:05:17;8.30;;;7.45;;
56319;SDS011;42226;42.382;23.748;2022-07-06T07:07:44;9.27;;;7.22;;
56319;SDS011;42226;42.382;23.748;2022-07-06T07:10:10;10.63;;;7.85;;
56319;SDS011;42226;42.382;23.748;2022-07-06T07:12:44;9.10;;;7.72;;
56319;SDS011;42226;42.382;23.748;2022-07-06T07:15:14;8.55;;;7.65;;
56319;SDS011;42226;42.382;23.748;2022-07-06T07:17:41;8.88;;;7.63;;
56319;SDS011;42226;42.382;23.748;2022-07-06T07:20:07;8.88;;;7.90;;
56319;SDS011;42226;42.382;23.748;2022-07-06T07:22:35;10.15;;;7.43;;
56319;SDS011;42226;42.382;23.748;2022-07-06T07:25:01;8.88;;;8.02;;
56319;SDS011;42226;42.382;23.748;2022-07-06T07:27:28;9.40;;;8.07;;
56319;SDS011;42226;42.382;23.748;2022-07-06T07:29:55;8.80;;;7.80;;
56319;SDS011;42226;42.382;23.748;2022-07-06T07:32:22;8.15;;;6.88;;
56319;SDS011;42226;42.382;23.748;2022-07-06T07:34:48;9.10;;;7.82;;
56319;SDS011;42226;42.382;23.748;2022-07-06T07:37:15;8.77;;;7.50;;
56319;SDS011;42226;42.382;23.748;2022-07-06T07:39:41;8.15;;;7.32;;
56319;SDS011;42226;42.382;23.748;2022-07-06T07:42:08;9.75;;;7.38;;
56319;SDS011;42226;42.382;23.748;2022-07-06T07:44:34;8.25;;;7.22;;
56319;SDS011;42226;42.382;23.748;2022-07-06T07:47:01;8.07;;;6.32;;
56319;SDS011;42226;42.382;23.748;2022-07-06T07:49:27;9.90;;;8.50;;
56319;SDS011;42226;42.382;23.748;2022-07-06T07:51:54;7.38;;;6.68;;
56319;SDS011;42226;42.382;23.748;2022-07-06T07:54:21;9.70;;;8.73;;
56319;SDS011;42226;42.382;23.748;2022-07-06T07:56:48;8.00;;;7.20;;
56319;SDS011;42226;42.382;23.748;2022-07-06T07:59:15;8.10;;;7.07;;
56319;SDS011;42226;42.382;23.748;2022-07-06T08:01:41;9.25;;;7.70;;
56319;SDS011;42226;42.382;23.748;2022-07-06T08:04:09;10.18;;;8.05;;
56319;SDS011;42226;42.382;23.748;2022-07-06T08:06:36;8.25;;;7.28;;
56319;SDS011;42226;42.382;23.748;2022-07-06T08:09:02;7.95;;;7.25;;
56319;SDS011;42226;42.382;23.748;2022-07-06T08:11:32;9.55;;;8.63;;
56319;SDS011;42226;42.382;23.748;2022-07-06T08:14:02;8.70;;;7.80;;
56319;SDS011;42226;42.382;23.748;2022-07-06T08:16:30;8.07;;;6.95;;
56319;SDS011;42226;42.382;23.748;2022-07-06T08:18:57;8.55;;;7.32;;
56319;SDS011;42226;42.382;23.748;2022-07-06T08:21:24;8.35;;;7.13;;
56319;SDS011;42226;42.382;23.748;2022-07-06T08:23:51;8.68;;;7.72;;
56319;SDS011;42226;42.382;23.748;2022-07-06T08:26:19;10.32;;;7.85;;
56319;SDS011;42226;42.382;23.748;2022-07-06T08:28:46;7.97;;;6.63;;
56319;SDS011;42226;42.382;23.748;2022-07-06T08:31:13;8.90;;;7.85;;
56319;SDS011;42226;42.382;23.748;2022-07-06T08:33:40;8.73;;;7.78;;
56319;SDS011;42226;42.382;23.748;2022-07-06T08:36:07;10.60;;;8.30;;
56319;SDS011;42226;42.382;23.748;2022-07-06T08:38:34;8.88;;;7.97;;
56319;SDS011;42226;42.382;23.748;2022-07-06T08:41:00;9.52;;;7.80;;
56319;SDS011;42226;42.382;23.748;2022-07-06T08:43:31;8.68;;;7.88;;
56319;SDS011;42226;42.382;23.748;2022-07-06T08:46:00;8.52;;;7.72;;
56319;SDS011;42226;42.382;23.748;2022-07-06T08:48:28;9.77;;;6.63;;
56319;SDS011;42226;42.382;23.748;2022-07-06T08:51:04;7.88;;;7.07;;
56319;SDS011;42226;42.382;23.748;2022-07-06T08:53:31;7.55;;;6.82;;
56319;SDS011;42226;42.382;23.748;2022-07-06T08:55:59;8.27;;;7.15;;
56319;SDS011;42226;42.382;23.748;2022-07-06T08:58:29;10.60;;;8.15;;
56319;SDS011;42226;42.382;23.748;2022-07-06T09:00:58;8.43;;;7.00;;
56319;SDS011;42226;42.382;23.748;2022-07-06T09:03:25;9.27;;;7.80;;
56319;SDS011;42226;42.382;23.748;2022-07-06T09:05:56;9.07;;;7.28;;
56319;SDS011;42226;42.382;23.748;2022-07-06T09:08:27;7.38;;;6.35;;
56319;SDS011;42226;42.382;23.748;2022-07-06T09:10:56;6.40;;;5.85;;
56319;SDS011;42226;42.382;23.748;2022-07-06T09:13:22;6.78;;;6.18;;
56319;SDS011;42226;42.382;23.748;2022-07-06T09:15:49;6.03;;;5.43;;
56319;SDS011;42226;42.382;23.748;2022-07-06T09:18:15;7.88;;;6.63;;
56319;SDS011;42226;42.382;23.748;2022-07-06T09:20:42;7.18;;;6.50;;
56319;SDS011;42226;42.382;23.748;2022-07-06T09:23:08;7.15;;;6.43;;
56319;SDS011;42226;42.382;23.748;2022-07-06T09:25:35;6.72;;;5.97;;
56319;SDS011;42226;42.382;23.748;2022-07-06T09:28:02;7.07;;;5.38;;
56319;SDS011;42226;42.382;23.748;2022-07-06T09:30:30;7.57;;;6.88;;
56319;SDS011;42226;42.382;23.748;2022-07-06T09:32:57;7.60;;;6.70;;
56319;SDS011;42226;42.382;23.748;2022-07-06T09:35:26;6.43;;;5.82;;
56319;SDS011;42226;42.382;23.748;2022-07-06T09:38:10;9.35;;;6.68;;
56319;SDS011;42226;42.382;23.748;2022-07-06T09:40:39;7.75;;;6.07;;
56319;SDS011;42226;42.382;23.748;2022-07-06T09:45:40;8.57;;;6.05;;
56319;SDS011;42226;42.382;23.748;2022-07-06T09:48:21;6.38;;;5.57;;
56319;SDS011;42226;42.382;23.748;2022-07-06T09:50:53;9.23;;;6.65;;
56319;SDS011;42226;42.382;23.748;2022-07-06T09:53:27;7.85;;;6.00;;
56319;SDS011;42226;42.382;23.748;2022-07-06T09:55:55;8.60;;;7.38;;
56319;SDS011;42226;42.382;23.748;2022-07-06T09:58:27;7.80;;;6.47;;
56319;SDS011;42226;42.382;23.748;2022-07-06T10:00:53;6.43;;;5.82;;
56319;SDS011;42226;42.382;23.748;2022-07-06T10:03:20;6.45;;;5.85;;
56319;SDS011;42226;42.382;23.748;2022-07-06T10:05:47;7.13;;;6.45;;
56319;SDS011;42226;42.382;23.748;2022-07-06T10:08:15;8.82;;;6.68;;
56319;SDS011;42226;42.382;23.748;2022-07-06T10:10:42;9.07;;;6.45;;
56319;SDS011;42226;42.382;23.748;2022-07-06T10:13:10;9.35;;;7.93;;
56319;SDS011;42226;42.382;23.748;2022-07-06T10:15:39;7.50;;;6.80;;
56319;SDS011;42226;42.382;23.748;2022-07-06T10:18:07;7.07;;;6.38;;
56319;SDS011;42226;42.382;23.748;2022-07-06T10:20:36;7.80;;;7.00;;
56319;SDS011;42226;42.382;23.748;2022-07-06T10:23:05;7.90;;;6.85;;
56319;SDS011;42226;42.382;23.748;2022-07-06T10:25:33;8.80;;;6.60;;
56319;SDS011;42226;42.382;23.748;2022-07-06T10:28:00;7.47;;;6.05;;
56319;SDS011;42226;42.382;23.748;2022-07-06T10:30:27;7.18;;;5.72;;
56319;SDS011;42226;42.382;23.748;2022-07-06T10:32:56;7.28;;;6.68;;
56319;SDS011;42226;42.382;23.748;2022-07-06T10:35:24;7.90;;;5.88;;
56319;SDS011;42226;42.382;23.748;2022-07-06T10:38:04;7.25;;;6.60;;
56319;SDS011;42226;42.382;23.748;2022-07-06T10:40:32;6.40;;;5.80;;
56319;SDS011;42226;42.382;23.748;2022-07-06T10:43:18;7.15;;;5.88;;
56319;SDS011;42226;42.382;23.748;2022-07-06T10:50:38;8.18;;;6.05;;
56319;SDS011;42226;42.382;23.748;2022-07-06T10:53:16;7.10;;;6.40;;
56319;SDS011;42226;42.382;23.748;2022-07-06T10:55:50;6.30;;;5.70;;
56319;SDS011;42226;42.382;23.748;2022-07-06T11:08:52;7.70;;;6.90;;
56319;SDS011;42226;42.382;23.748;2022-07-06T11:11:22;7.47;;;6.78;;
56319;SDS011;42226;42.382;23.748;2022-07-06T11:14:18;6.88;;;6.28;;
56319;SDS011;42226;42.382;23.748;2022-07-06T11:19:21;7.15;;;5.07;;
56319;SDS011;42226;42.382;23.748;2022-07-06T11:24:31;6.50;;;5.88;;
56319;SDS011;42226;42.382;23.748;2022-07-06T11:27:00;6.63;;;6.00;;
56319;SDS011;42226;42.382;23.748;2022-07-06T11:29:27;7.18;;;6.15;;
56319;SDS011;42226;42.382;23.748;2022-07-06T11:31:56;8.13;;;7.32;;
56319;SDS011;42226;42.382;23.748;2022-07-06T11:34:29;8.30;;;7.50;;
56319;SDS011;42226;42.382;23.748;2022-07-06T11:36:58;7.75;;;6.70;;
56319;SDS011;42226;42.382;23.748;2022-07-06T11:39:36;9.52;;;7.22;;
56319;SDS011;42226;42.382;23.748;2022-07-06T11:42:17;8.13;;;6.50;;
56319;SDS011;42226;42.382;23.748;2022-07-06T11:44:44;6.97;;;6.05;;
56319;SDS011;42226;42.382;23.748;2022-07-06T11:47:12;7.00;;;6.32;;
56319;SDS011;42226;42.382;23.748;2022-07-06T11:49:40;7.10;;;6.40;;
56319;SDS011;42226;42.382;23.748;2022-07-06T11:52:07;6.85;;;6.25;;
56319;SDS011;42226;42.382;23.748;2022-07-06T11:54:37;7.10;;;6.45;;
56319;SDS011;42226;42.382;23.748;2022-07-06T11:57:09;8.15;;;6.70;;
56319;SDS011;42226;42.382;23.748;2022-07-06T11:59:37;7.78;;;6.97;;
56319;SDS011;42226;42.382;23.748;2022-07-06T12:02:09;7.45;;;6.22;;
56319;SDS011;42226;42.382;23.748;2022-07-06T12:04:41;6.97;;;6.28;;
56319;SDS011;42226;42.382;23.748;2022-07-06T12:07:13;8.57;;;7.68;;
56319;SDS011;42226;42.382;23.748;2022-07-06T12:09:43;8.70;;;7.90;;
56319;SDS011;42226;42.382;23.748;2022-07-06T12:12:13;8.60;;;7.80;;
56319;SDS011;42226;42.382;23.748;2022-07-06T12:14:41;9.57;;;8.65;;
56319;SDS011;42226;42.382;23.748;2022-07-06T12:17:12;8.57;;;7.78;;
56319;SDS011;42226;42.382;23.748;2022-07-06T12:19:40;8.65;;;7.75;;
56319;SDS011;42226;42.382;23.748;2022-07-06T12:22:07;9.35;;;8.48;;
56319;SDS011;42226;42.382;23.748;2022-07-06T12:24:35;9.65;;;8.75;;
56319;SDS011;42226;42.382;23.748;2022-07-06T12:27:15;8.80;;;7.63;;
56319;SDS011;42226;42.382;23.748;2022-07-06T12:32:15;10.45;;;9.40;;
56319;SDS011;42226;42.382;23.748;2022-07-06T12:35:04;9.27;;;8.27;;
56319;SDS011;42226;42.382;23.748;2022-07-06T12:37:34;10.25;;;9.18;;
56319;SDS011;42226;42.382;23.748;2022-07-06T12:40:02;10.90;;;9.90;;
56319;SDS011;42226;42.382;23.748;2022-07-06T12:42:47;8.95;;;8.05;;
56319;SDS011;42226;42.382;23.748;2022-07-06T12:45:14;9.10;;;8.30;;
56319;SDS011;42226;42.382;23.748;2022-07-06T12:47:46;8.32;;;7.53;;
56319;SDS011;42226;42.382;23.748;2022-07-06T12:50:30;8.82;;;7.93;;
56319;SDS011;42226;42.382;23.748;2022-07-06T12:52:59;9.43;;;8.60;;
56319;SDS011;42226;42.382;23.748;2022-07-06T12:55:27;9.68;;;8.70;;
56319;SDS011;42226;42.382;23.748;2022-07-06T12:57:55;10.50;;;9.48;;
56319;SDS011;42226;42.382;23.748;2022-07-06T13:00:23;9.70;;;8.80;;
56319;SDS011;42226;42.382;23.748;2022-07-06T13:02:51;11.18;;;8.23;;
56319;SDS011;42226;42.382;23.748;2022-07-06T13:05:22;12.30;;;9.77;;
56319;SDS011;42226;42.382;23.748;2022-07-06T13:07:56;15.75;;;12.07;;
56319;SDS011;42226;42.382;23.748;2022-07-06T13:10:24;12.85;;;11.65;;
56319;SDS011;42226;42.382;23.748;2022-07-06T13:12:51;11.65;;;10.55;;
56319;SDS011;42226;42.382;23.748;2022-07-06T13:15:17;11.43;;;10.32;;
56319;SDS011;42226;42.382;23.748;2022-07-06T13:17:44;11.18;;;10.10;;
56319;SDS011;42226;42.382;23.748;2022-07-06T13:20:11;12.88;;;11.73;;
56319;SDS011;42226;42.382;23.748;2022-07-06T13:22:39;12.82;;;11.63;;
56319;SDS011;42226;42.382;23.748;2022-07-06T13:25:06;11.48;;;10.52;;
56319;SDS011;42226;42.382;23.748;2022-07-06T13:27:33;13.65;;;12.45;;
56319;SDS011;42226;42.382;23.748;2022-07-06T13:30:00;13.70;;;12.40;;
56319;SDS011;42226;42.382;23.748;2022-07-06T13:32:27;12.05;;;11.05;;
56319;SDS011;42226;42.382;23.748;2022-07-06T13:34:53;11.50;;;10.50;;
56319;SDS011;42226;42.382;23.748;2022-07-06T13:37:20;13.32;;;11.93;;
56319;SDS011;42226;42.382;23.748;2022-07-06T13:39:46;11.68;;;10.45;;
56319;SDS011;42226;42.382;23.748;2022-07-06T13:42:13;13.48;;;12.27;;
56319;SDS011;42226;42.382;23.748;2022-07-06T13:44:40;12.15;;;11.05;;
56319;SDS011;42226;42.382;23.748;2022-07-06T13:47:06;13.63;;;11.60;;
56319;SDS011;42226;42.382;23.748;2022-07-06T13:49:33;12.98;;;11.88;;
56319;SDS011;42226;42.382;23.748;2022-07-06T13:52:00;12.52;;;11.40;;
56319;SDS011;42226;42.382;23.748;2022-07-06T13:54:30;13.35;;;12.07;;
56319;SDS011;42226;42.382;23.748;2022-07-06T13:56:57;12.90;;;11.60;;
56319;SDS011;42226;42.382;23.748;2022-07-06T13:59:26;12.05;;;10.75;;
56319;SDS011;42226;42.382;23.748;2022-07-06T14:01:52;17.63;;;10.75;;
56319;SDS011;42226;42.382;23.748;2022-07-06T14:04:19;11.93;;;10.88;;
56319;SDS011;42226;42.382;23.748;2022-07-06T14:06:45;13.05;;;11.85;;
56319;SDS011;42226;42.382;23.748;2022-07-06T14:09:12;11.57;;;10.48;;
56319;SDS011;42226;42.382;23.748;2022-07-06T14:11:38;11.88;;;10.68;;
56319;SDS011;42226;42.382;23.748;2022-07-06T14:14:05;10.95;;;9.85;;
56319;SDS011;42226;42.382;23.748;2022-07-06T14:16:33;10.63;;;9.63;;
56319;SDS011;42226;42.382;23.748;2022-07-06T14:19:00;12.32;;;11.32;;
56319;SDS011;42226;42.382;23.748;2022-07-06T14:21:27;12.45;;;11.25;;
56319;SDS011;42226;42.382;23.748;2022-07-06T14:23:54;10.73;;;9.68;;
56319;SDS011;42226;42.382;23.748;2022-07-06T14:26:20;10.40;;;9.40;;
56319;SDS011;42226;42.382;23.748;2022-07-06T14:28:47;9.93;;;9.02;;
56319;SDS011;42226;42.382;23.748;2022-07-06T14:31:13;10.57;;;9.57;;
56319;SDS011;42226;42.382;23.748;2022-07-06T14:33:40;8.95;;;7.85;;
56319;SDS011;42226;42.382;23.748;2022-07-06T14:36:06;10.18;;;9.25;;
56319;SDS011;42226;42.382;23.748;2022-07-06T14:38:33;10.10;;;9.10;;
56319;SDS011;42226;42.382;23.748;2022-07-06T14:40:59;10.45;;;9.43;;
56319;SDS011;42226;42.382;23.748;2022-07-06T14:43:26;9.75;;;8.80;;
56319;SDS011;42226;42.382;23.748;2022-07-06T14:45:52;9.50;;;8.70;;
56319;SDS011;42226;42.382;23.748;2022-07-06T14:48:19;10.23;;;8.90;;
56319;SDS011;42226;42.382;23.748;2022-07-06T14:50:46;8.82;;;8.02;;
56319;SDS011;42226;42.382;23.748;2022-07-06T14:53:12;11.13;;;8.77;;
56319;SDS011;42226;42.382;23.748;2022-07-06T14:55:39;9.55;;;8.65;;